sensor_id;sensor_type;location;lat;lon;timestamp;temperature;humidity
17483;DHT22;8858;52.308;20.994;2024-02-21T00:00:46;5.70;99.90
17483;DHT22;8858;52.308;20.994;2024-02-21T00:03:16;5.70;99.90
17483;DHT22;8858;52.308;20.994;2024-02-21T00:05:44;5.70;99.90
17483;DHT22;8858;52.308;20.994;2024-02-21T00:08:12;5.60;99.90
17483;DHT22;8858;52.308;20.994;2024-02-21T00:10:46;5.70;99.90
17483;DHT22;8858;52.308;20.994;2024-02-21T00:13:15;5.70;99.90
17483;DHT22;8858;52.308;20.994;2024-02-21T00:15:43;5.70;99.90
17483;DHT22;8858;52.308;20.994;2024-02-21T00:18:12;5.60;99.90
17483;DHT22;8858;52.308;20.994;2024-02-21T00:20:40;5.60;99.90
17483;DHT22;8858;52.308;20.994;2024-02-21T00:23:12;5.60;99.90
17483;DHT22;8858;52.308;20.994;2024-02-21T00:25:41;5.60;99.90
17483;DHT22;8858;52.308;20.994;2024-02-21T00:28:11;5.60;99.90
17483;DHT22;8858;52.308;20.994;2024-02-21T00:30:40;5.60;99.90
17483;DHT22;8858;52.308;20.994;2024-02-21T00:33:10;5.60;99.90
17483;DHT22;8858;52.308;20.994;2024-02-21T00:35:41;5.60;99.90
17483;DHT22;8858;52.308;20.994;2024-02-21T00:38:09;5.70;99.90
17483;DHT22;8858;52.308;20.994;2024-02-21T00:40:38;5.70;99.90
17483;DHT22;8858;52.308;20.994;2024-02-21T00:43:08;5.70;99.90
17483;DHT22;8858;52.308;20.994;2024-02-21T00:45:38;5.70;99.90
17483;DHT22;8858;52.308;20.994;2024-02-21T00:48:10;5.80;99.90
17483;DHT22;8858;52.308;20.994;2024-02-21T00:50:39;5.80;99.90
17483;DHT22;8858;52.308;20.994;2024-02-21T00:53:07;5.80;99.90
17483;DHT22;8858;52.308;20.994;2024-02-21T00:55:37;5.90;99.90
17483;DHT22;8858;52.308;20.994;2024-02-21T00:58:05;5.90;99.90
17483;DHT22;8858;52.308;20.994;2024-02-21T01:00:40;5.90;99.90
17483;DHT22;8858;52.308;20.994;2024-02-21T01:03:09;6.00;99.90
17483;DHT22;8858;52.308;20.994;2024-02-21T01:05:37;6.00;99.90
17483;DHT22;8858;52.308;20.994;2024-02-21T01:08:06;6.00;99.90
17483;DHT22;8858;52.308;20.994;2024-02-21T01:10:35;6.10;99.90
17483;DHT22;8858;52.308;20.994;2024-02-21T01:13:06;6.10;99.90
17483;DHT22;8858;52.308;20.994;2024-02-21T01:15:35;6.10;99.90
17483;DHT22;8858;52.308;20.994;2024-02-21T01:18:05;6.20;99.90
17483;DHT22;8858;52.308;20.994;2024-02-21T01:20:34;6.20;99.90
17483;DHT22;8858;52.308;20.994;2024-02-21T01:23:03;6.30;99.90
17483;DHT22;8858;52.308;20.994;2024-02-21T01:25:34;6.30;99.90
17483;DHT22;8858;52.308;20.994;2024-02-21T01:28:03;6.40;99.90
17483;DHT22;8858;52.308;20.994;2024-02-21T01:30:33;6.40;99.90
17483;DHT22;8858;52.308;20.994;2024-02-21T01:33:02;6.40;99.90
17483;DHT22;8858;52.308;20.994;2024-02-21T01:35:32;6.40;99.90
17483;DHT22;8858;52.308;20.994;2024-02-21T01:38:01;6.40;99.90
17483;DHT22;8858;52.308;20.994;2024-02-21T01:40:30;6.40;99.90
17483;DHT22;8858;52.308;20.994;2024-02-21T01:42:59;6.40;99.90
17483;DHT22;8858;52.308;20.994;2024-02-21T01:45:28;6.40;99.90
17483;DHT22;8858;52.308;20.994;2024-02-21T01:47:57;6.40;99.90
17483;DHT22;8858;52.308;20.994;2024-02-21T01:50:25;6.30;99.90
17483;DHT22;8858;52.308;20.994;2024-02-21T01:52:55;6.30;99.90
17483;DHT22;8858;52.308;20.994;2024-02-21T01:55:25;6.20;99.90
17483;DHT22;8858;52.308;20.994;2024-02-21T01:57:56;6.20;99.90
17483;DHT22;8858;52.308;20.994;2024-02-21T02:00:24;6.10;99.90
17483;DHT22;8858;52.308;20.994;2024-02-21T02:02:54;6.20;99.90
17483;DHT22;8858;52.308;20.994;2024-02-21T02:08:46;6.10;99.90
17483;DHT22;8858;52.308;20.994;2024-02-21T02:11:27;6.10;99.90
17483;DHT22;8858;52.308;20.994;2024-02-21T02:14:33;6.20;99.90
17483;DHT22;8858;52.308;20.994;2024-02-21T02:17:03;6.20;99.90
17483;DHT22;8858;52.308;20.994;2024-02-21T02:19:32;6.30;99.90
17483;DHT22;8858;52.308;20.994;2024-02-21T02:22:09;6.30;99.90
17483;DHT22;8858;52.308;20.994;2024-02-21T02:24:39;6.30;99.90
17483;DHT22;8858;52.308;20.994;2024-02-21T02:27:08;6.30;99.90
17483;DHT22;8858;52.308;20.994;2024-02-21T02:29:36;6.30;99.90
17483;DHT22;8858;52.308;20.994;2024-02-21T02:32:09;6.30;99.90
17483;DHT22;8858;52.308;20.994;2024-02-21T02:34:37;6.30;99.90
17483;DHT22;8858;52.308;20.994;2024-02-21T02:37:06;6.30;99.90
17483;DHT22;8858;52.308;20.994;2024-02-21T02:39:36;6.30;99.90
17483;DHT22;8858;52.308;20.994;2024-02-21T02:42:06;6.20;99.90
17483;DHT22;8858;52.308;20.994;2024-02-21T02:44:36;6.20;99.90
17483;DHT22;8858;52.308;20.994;2024-02-21T02:47:06;6.20;99.90
17483;DHT22;8858;52.308;20.994;2024-02-21T02:49:34;6.30;99.90
17483;DHT22;8858;52.308;20.994;2024-02-21T02:52:04;6.20;99.90
17483;DHT22;8858;52.308;20.994;2024-02-21T02:54:33;6.20;99.90
17483;DHT22;8858;52.308;20.994;2024-02-21T02:57:06;6.10;99.90
17483;DHT22;8858;52.308;20.994;2024-02-21T02:59:35;6.10;99.90
17483;DHT22;8858;52.308;20.994;2024-02-21T03:02:04;6.20;99.90
17483;DHT22;8858;52.308;20.994;2024-02-21T03:04:32;6.10;99.90
17483;DHT22;8858;52.308;20.994;2024-02-21T03:07:01;6.20;99.90
17483;DHT22;8858;52.308;20.994;2024-02-21T03:09:29;6.20;99.90
17483;DHT22;8858;52.308;20.994;2024-02-21T03:11:58;6.20;99.90
17483;DHT22;8858;52.308;20.994;2024-02-21T03:14:31;6.20;99.90
17483;DHT22;8858;52.308;20.994;2024-02-21T03:17:00;6.20;99.90
17483;DHT22;8858;52.308;20.994;2024-02-21T03:19:29;6.20;99.90
17483;DHT22;8858;52.308;20.994;2024-02-21T03:22:01;6.20;99.90
17483;DHT22;8858;52.308;20.994;2024-02-21T03:24:31;6.20;99.90
17483;DHT22;8858;52.308;20.994;2024-02-21T03:27:00;6.30;99.90
17483;DHT22;8858;52.308;20.994;2024-02-21T03:29:30;6.20;99.90
17483;DHT22;8858;52.308;20.994;2024-02-21T03:31:59;6.30;99.90
17483;DHT22;8858;52.308;20.994;2024-02-21T03:34:28;6.30;99.90
17483;DHT22;8858;52.308;20.994;2024-02-21T03:36:57;6.30;99.90
17483;DHT22;8858;52.308;20.994;2024-02-21T03:39:27;6.30;99.90
17483;DHT22;8858;52.308;20.994;2024-02-21T03:41:56;6.30;99.90
17483;DHT22;8858;52.308;20.994;2024-02-21T03:44:24;6.20;99.90
17483;DHT22;8858;52.308;20.994;2024-02-21T03:46:55;6.20;99.90
17483;DHT22;8858;52.308;20.994;2024-02-21T03:49:23;6.20;99.90
17483;DHT22;8858;52.308;20.994;2024-02-21T03:51:54;6.20;99.90
17483;DHT22;8858;52.308;20.994;2024-02-21T03:54:23;6.20;99.90
17483;DHT22;8858;52.308;20.994;2024-02-21T03:56:52;6.20;99.90
17483;DHT22;8858;52.308;20.994;2024-02-21T03:59:20;6.30;99.90
17483;DHT22;8858;52.308;20.994;2024-02-21T04:01:51;6.30;99.90
17483;DHT22;8858;52.308;20.994;2024-02-21T04:04:24;6.30;99.90
17483;DHT22;8858;52.308;20.994;2024-02-21T04:06:52;6.20;99.90
17483;DHT22;8858;52.308;20.994;2024-02-21T04:09:20;6.30;99.90
17483;DHT22;8858;52.308;20.994;2024-02-21T04:11:49;6.30;99.90
17483;DHT22;8858;52.308;20.994;2024-02-21T04:14:18;6.30;99.90
17483;DHT22;8858;52.308;20.994;2024-02-21T04:16:49;6.40;99.90
17483;DHT22;8858;52.308;20.994;2024-02-21T04:19:18;6.30;99.90
17483;DHT22;8858;52.308;20.994;2024-02-21T04:21:49;6.30;99.90
17483;DHT22;8858;52.308;20.994;2024-02-21T04:24:17;6.30;99.90
17483;DHT22;8858;52.308;20.994;2024-02-21T04:26:45;6.30;99.90
17483;DHT22;8858;52.308;20.994;2024-02-21T04:29:18;6.30;99.90
17483;DHT22;8858;52.308;20.994;2024-02-21T04:31:46;6.30;99.90
17483;DHT22;8858;52.308;20.994;2024-02-21T04:34:15;6.40;99.90
17483;DHT22;8858;52.308;20.994;2024-02-21T04:36:43;6.40;99.90
17483;DHT22;8858;52.308;20.994;2024-02-21T04:39:13;6.40;99.90
17483;DHT22;8858;52.308;20.994;2024-02-21T04:41:43;6.30;99.90
17483;DHT22;8858;52.308;20.994;2024-02-21T04:44:11;6.40;99.90
17483;DHT22;8858;52.308;20.994;2024-02-21T04:46:42;6.30;99.90
17483;DHT22;8858;52.308;20.994;2024-02-21T04:49:11;6.30;99.90
17483;DHT22;8858;52.308;20.994;2024-02-21T04:51:41;6.30;99.90
17483;DHT22;8858;52.308;20.994;2024-02-21T04:54:09;6.30;99.90
17483;DHT22;8858;52.308;20.994;2024-02-21T04:56:45;6.30;99.90
17483;DHT22;8858;52.308;20.994;2024-02-21T04:59:27;6.40;99.90
17483;DHT22;8858;52.308;20.994;2024-02-21T05:02:03;6.40;99.90
17483;DHT22;8858;52.308;20.994;2024-02-21T05:04:38;6.40;99.90
17483;DHT22;8858;52.308;20.994;2024-02-21T05:07:10;6.50;99.90
17483;DHT22;8858;52.308;20.994;2024-02-21T05:09:40;6.60;99.90
17483;DHT22;8858;52.308;20.994;2024-02-21T05:12:11;6.60;99.90
17483;DHT22;8858;52.308;20.994;2024-02-21T05:14:40;6.60;99.90
17483;DHT22;8858;52.308;20.994;2024-02-21T05:17:08;6.60;99.90
17483;DHT22;8858;52.308;20.994;2024-02-21T05:19:39;6.70;99.90
17483;DHT22;8858;52.308;20.994;2024-02-21T05:22:08;6.70;99.90
17483;DHT22;8858;52.308;20.994;2024-02-21T05:24:36;6.80;99.90
17483;DHT22;8858;52.308;20.994;2024-02-21T05:27:05;6.80;99.90
17483;DHT22;8858;52.308;20.994;2024-02-21T05:29:34;6.80;99.90
17483;DHT22;8858;52.308;20.994;2024-02-21T05:32:03;6.80;99.90
17483;DHT22;8858;52.308;20.994;2024-02-21T05:34:34;6.80;99.90
17483;DHT22;8858;52.308;20.994;2024-02-21T05:37:03;6.80;99.90
17483;DHT22;8858;52.308;20.994;2024-02-21T05:39:31;6.80;99.90
17483;DHT22;8858;52.308;20.994;2024-02-21T05:42:00;6.80;99.90
17483;DHT22;8858;52.308;20.994;2024-02-21T05:44:28;6.90;99.90
17483;DHT22;8858;52.308;20.994;2024-02-21T05:46:57;6.90;99.90
17483;DHT22;8858;52.308;20.994;2024-02-21T05:49:31;6.90;99.90
17483;DHT22;8858;52.308;20.994;2024-02-21T05:52:00;6.90;99.90
17483;DHT22;8858;52.308;20.994;2024-02-21T05:54:28;6.90;99.90
17483;DHT22;8858;52.308;20.994;2024-02-21T05:56:57;6.90;99.90
17483;DHT22;8858;52.308;20.994;2024-02-21T05:59:25;7.00;99.90
17483;DHT22;8858;52.308;20.994;2024-02-21T06:01:58;7.00;99.90
17483;DHT22;8858;52.308;20.994;2024-02-21T06:04:27;7.00;99.90
17483;DHT22;8858;52.308;20.994;2024-02-21T06:06:56;7.00;99.90
17483;DHT22;8858;52.308;20.994;2024-02-21T06:09:24;7.00;99.90
17483;DHT22;8858;52.308;20.994;2024-02-21T06:11:56;7.00;99.90
17483;DHT22;8858;52.308;20.994;2024-02-21T06:14:28;7.00;99.90
17483;DHT22;8858;52.308;20.994;2024-02-21T06:16:58;7.10;99.90
17483;DHT22;8858;52.308;20.994;2024-02-21T06:19:27;7.10;99.90
17483;DHT22;8858;52.308;20.994;2024-02-21T06:21:56;7.10;99.90
17483;DHT22;8858;52.308;20.994;2024-02-21T06:24:26;7.10;99.90
17483;DHT22;8858;52.308;20.994;2024-02-21T06:26:57;7.10;99.90
17483;DHT22;8858;52.308;20.994;2024-02-21T06:29:26;7.10;99.90
17483;DHT22;8858;52.308;20.994;2024-02-21T06:31:54;7.10;99.90
17483;DHT22;8858;52.308;20.994;2024-02-21T06:34:24;7.10;99.90
17483;DHT22;8858;52.308;20.994;2024-02-21T06:36:57;7.10;99.90
17483;DHT22;8858;52.308;20.994;2024-02-21T06:39:25;7.20;99.90
17483;DHT22;8858;52.308;20.994;2024-02-21T06:41:55;7.10;99.90
17483;DHT22;8858;52.308;20.994;2024-02-21T06:44:32;7.20;99.90
17483;DHT22;8858;52.308;20.994;2024-02-21T06:47:03;7.20;99.90
17483;DHT22;8858;52.308;20.994;2024-02-21T06:49:33;7.20;99.90
17483;DHT22;8858;52.308;20.994;2024-02-21T06:52:02;7.20;99.90
17483;DHT22;8858;52.308;20.994;2024-02-21T06:54:31;7.20;99.90
17483;DHT22;8858;52.308;20.994;2024-02-21T06:57:04;7.20;99.90
17483;DHT22;8858;52.308;20.994;2024-02-21T06:59:32;7.30;99.90
17483;DHT22;8858;52.308;20.994;2024-02-21T07:02:00;7.30;99.90
17483;DHT22;8858;52.308;20.994;2024-02-21T07:04:28;7.30;99.90
17483;DHT22;8858;52.308;20.994;2024-02-21T07:06:59;7.30;99.90
17483;DHT22;8858;52.308;20.994;2024-02-21T07:09:28;7.30;99.90
17483;DHT22;8858;52.308;20.994;2024-02-21T07:11:59;7.30;99.90
17483;DHT22;8858;52.308;20.994;2024-02-21T07:14:28;7.30;99.90
17483;DHT22;8858;52.308;20.994;2024-02-21T07:16:57;7.30;99.90
17483;DHT22;8858;52.308;20.994;2024-02-21T07:19:25;7.30;99.90
17483;DHT22;8858;52.308;20.994;2024-02-21T07:21:54;7.30;99.90
17483;DHT22;8858;52.308;20.994;2024-02-21T07:24:25;7.30;99.90
17483;DHT22;8858;52.308;20.994;2024-02-21T07:26:54;7.30;99.90
17483;DHT22;8858;52.308;20.994;2024-02-21T07:29:22;7.40;99.90
17483;DHT22;8858;52.308;20.994;2024-02-21T07:31:52;7.40;99.90
17483;DHT22;8858;52.308;20.994;2024-02-21T07:34:21;7.40;99.90
17483;DHT22;8858;52.308;20.994;2024-02-21T07:36:50;7.50;99.90
17483;DHT22;8858;52.308;20.994;2024-02-21T07:39:18;7.50;99.90
17483;DHT22;8858;52.308;20.994;2024-02-21T07:41:51;7.40;99.90
17483;DHT22;8858;52.308;20.994;2024-02-21T07:44:22;7.50;99.90
17483;DHT22;8858;52.308;20.994;2024-02-21T07:46:50;7.50;99.90
17483;DHT22;8858;52.308;20.994;2024-02-21T07:49:32;7.60;99.90
17483;DHT22;8858;52.308;20.994;2024-02-21T07:52:01;7.60;99.90
17483;DHT22;8858;52.308;20.994;2024-02-21T07:54:31;7.70;99.90
17483;DHT22;8858;52.308;20.994;2024-02-21T07:56:59;7.70;99.90
17483;DHT22;8858;52.308;20.994;2024-02-21T07:59:27;7.70;99.90
17483;DHT22;8858;52.308;20.994;2024-02-21T08:01:58;7.80;99.90
17483;DHT22;8858;52.308;20.994;2024-02-21T08:04:26;7.80;99.90
17483;DHT22;8858;52.308;20.994;2024-02-21T08:06:57;7.80;99.90
17483;DHT22;8858;52.308;20.994;2024-02-21T08:09:29;7.90;99.90
17483;DHT22;8858;52.308;20.994;2024-02-21T08:11:58;7.90;99.90
17483;DHT22;8858;52.308;20.994;2024-02-21T08:14:27;7.90;99.90
17483;DHT22;8858;52.308;20.994;2024-02-21T08:16:56;7.90;99.90
17483;DHT22;8858;52.308;20.994;2024-02-21T08:19:25;8.00;99.90
17483;DHT22;8858;52.308;20.994;2024-02-21T08:21:54;8.10;99.90
17483;DHT22;8858;52.308;20.994;2024-02-21T08:24:25;8.10;99.90
17483;DHT22;8858;52.308;20.994;2024-02-21T08:26:54;8.20;99.90
17483;DHT22;8858;52.308;20.994;2024-02-21T08:29:22;8.30;99.90
17483;DHT22;8858;52.308;20.994;2024-02-21T08:31:50;8.30;99.90
17483;DHT22;8858;52.308;20.994;2024-02-21T08:34:19;8.30;99.90
17483;DHT22;8858;52.308;20.994;2024-02-21T08:36:51;8.30;99.90
17483;DHT22;8858;52.308;20.994;2024-02-21T08:39:21;8.30;99.90
17483;DHT22;8858;52.308;20.994;2024-02-21T08:41:50;8.30;99.90
17483;DHT22;8858;52.308;20.994;2024-02-21T08:44:25;8.30;99.90
17483;DHT22;8858;52.308;20.994;2024-02-21T08:46:54;8.30;99.90
17483;DHT22;8858;52.308;20.994;2024-02-21T08:49:24;8.30;99.90
17483;DHT22;8858;52.308;20.994;2024-02-21T08:52:01;8.30;99.90
17483;DHT22;8858;52.308;20.994;2024-02-21T08:54:32;8.40;99.90
17483;DHT22;8858;52.308;20.994;2024-02-21T08:57:02;8.40;99.90
17483;DHT22;8858;52.308;20.994;2024-02-21T08:59:35;8.50;99.90
17483;DHT22;8858;52.308;20.994;2024-02-21T09:02:06;8.50;99.90
17483;DHT22;8858;52.308;20.994;2024-02-21T09:04:36;8.50;99.90
17483;DHT22;8858;52.308;20.994;2024-02-21T09:07:05;8.60;99.90
17483;DHT22;8858;52.308;20.994;2024-02-21T09:09:34;8.60;99.90
17483;DHT22;8858;52.308;20.994;2024-02-21T09:12:11;8.60;99.90
17483;DHT22;8858;52.308;20.994;2024-02-21T09:14:42;8.70;99.90
17483;DHT22;8858;52.308;20.994;2024-02-21T09:17:36;8.70;99.90
17483;DHT22;8858;52.308;20.994;2024-02-21T09:20:09;8.70;99.90
17483;DHT22;8858;52.308;20.994;2024-02-21T09:22:40;8.80;99.90
17483;DHT22;8858;52.308;20.994;2024-02-21T09:25:09;8.70;99.90
17483;DHT22;8858;52.308;20.994;2024-02-21T09:27:40;8.80;99.90
17483;DHT22;8858;52.308;20.994;2024-02-21T09:30:09;8.80;99.90
17483;DHT22;8858;52.308;20.994;2024-02-21T09:32:38;8.80;99.90
17483;DHT22;8858;52.308;20.994;2024-02-21T09:35:08;8.80;99.90
17483;DHT22;8858;52.308;20.994;2024-02-21T09:37:37;8.80;99.90
17483;DHT22;8858;52.308;20.994;2024-02-21T09:40:07;8.80;99.90
17483;DHT22;8858;52.308;20.994;2024-02-21T09:42:37;8.80;99.90
17483;DHT22;8858;52.308;20.994;2024-02-21T09:45:19;8.80;99.90
17483;DHT22;8858;52.308;20.994;2024-02-21T09:50:49;8.90;99.90
17483;DHT22;8858;52.308;20.994;2024-02-21T09:53:18;8.80;99.90
17483;DHT22;8858;52.308;20.994;2024-02-21T09:55:48;8.90;99.90
17483;DHT22;8858;52.308;20.994;2024-02-21T09:58:22;8.90;99.90
17483;DHT22;8858;52.308;20.994;2024-02-21T10:00:52;8.90;99.90
17483;DHT22;8858;52.308;20.994;2024-02-21T10:03:20;8.90;99.90
17483;DHT22;8858;52.308;20.994;2024-02-21T10:05:49;8.90;99.90
17483;DHT22;8858;52.308;20.994;2024-02-21T10:08:19;8.90;99.90
17483;DHT22;8858;52.308;20.994;2024-02-21T10:10:50;9.00;99.90
17483;DHT22;8858;52.308;20.994;2024-02-21T10:13:25;9.00;99.90
17483;DHT22;8858;52.308;20.994;2024-02-21T10:16:05;9.00;99.90
17483;DHT22;8858;52.308;20.994;2024-02-21T10:18:34;9.00;99.90
17483;DHT22;8858;52.308;20.994;2024-02-21T10:21:06;9.00;99.90
17483;DHT22;8858;52.308;20.994;2024-02-21T10:23:46;9.00;99.90
17483;DHT22;8858;52.308;20.994;2024-02-21T10:26:14;9.10;99.90
17483;DHT22;8858;52.308;20.994;2024-02-21T10:28:43;9.10;99.90
17483;DHT22;8858;52.308;20.994;2024-02-21T10:31:23;9.00;99.90
17483;DHT22;8858;52.308;20.994;2024-02-21T10:33:56;9.10;99.90
17483;DHT22;8858;52.308;20.994;2024-02-21T10:36:29;9.10;99.90
17483;DHT22;8858;52.308;20.994;2024-02-21T10:38:57;9.10;99.90
17483;DHT22;8858;52.308;20.994;2024-02-21T10:41:25;9.10;99.90
17483;DHT22;8858;52.308;20.994;2024-02-21T10:43:55;9.20;99.90
17483;DHT22;8858;52.308;20.994;2024-02-21T10:46:25;9.20;99.90
17483;DHT22;8858;52.308;20.994;2024-02-21T10:49:04;9.20;99.90
17483;DHT22;8858;52.308;20.994;2024-02-21T10:51:38;9.20;99.90
17483;DHT22;8858;52.308;20.994;2024-02-21T10:54:21;9.20;99.90
17483;DHT22;8858;52.308;20.994;2024-02-21T10:56:54;9.20;99.90
17483;DHT22;8858;52.308;20.994;2024-02-21T10:59:27;9.30;99.90
17483;DHT22;8858;52.308;20.994;2024-02-21T11:01:59;9.30;99.90
17483;DHT22;8858;52.308;20.994;2024-02-21T11:04:30;9.30;99.90
17483;DHT22;8858;52.308;20.994;2024-02-21T11:07:01;9.30;99.90
17483;DHT22;8858;52.308;20.994;2024-02-21T11:09:35;9.30;99.90
17483;DHT22;8858;52.308;20.994;2024-02-21T11:12:06;9.30;99.90
17483;DHT22;8858;52.308;20.994;2024-02-21T11:14:38;9.30;99.90
17483;DHT22;8858;52.308;20.994;2024-02-21T11:17:17;9.30;99.90
17483;DHT22;8858;52.308;20.994;2024-02-21T11:19:45;9.30;99.90
17483;DHT22;8858;52.308;20.994;2024-02-21T11:22:16;9.30;99.90
17483;DHT22;8858;52.308;20.994;2024-02-21T11:24:46;9.30;99.90
17483;DHT22;8858;52.308;20.994;2024-02-21T11:27:15;9.30;99.90
17483;DHT22;8858;52.308;20.994;2024-02-21T11:29:44;9.30;99.90
17483;DHT22;8858;52.308;20.994;2024-02-21T11:32:16;9.40;99.90
17483;DHT22;8858;52.308;20.994;2024-02-21T11:34:56;9.30;99.90
17483;DHT22;8858;52.308;20.994;2024-02-21T11:37:30;9.30;99.90
17483;DHT22;8858;52.308;20.994;2024-02-21T11:40:01;9.30;99.90
17483;DHT22;8858;52.308;20.994;2024-02-21T11:42:30;9.30;99.90
17483;DHT22;8858;52.308;20.994;2024-02-21T11:45:00;9.30;99.90
17483;DHT22;8858;52.308;20.994;2024-02-21T11:47:30;9.30;99.90
17483;DHT22;8858;52.308;20.994;2024-02-21T11:49:58;9.20;99.90
17483;DHT22;8858;52.308;20.994;2024-02-21T11:52:28;9.20;99.90
17483;DHT22;8858;52.308;20.994;2024-02-21T11:54:58;9.20;99.90
17483;DHT22;8858;52.308;20.994;2024-02-21T11:57:32;9.20;99.90
17483;DHT22;8858;52.308;20.994;2024-02-21T12:00:27;9.20;99.90
17483;DHT22;8858;52.308;20.994;2024-02-21T12:02:56;9.20;99.90
17483;DHT22;8858;52.308;20.994;2024-02-21T12:05:30;9.20;99.90
17483;DHT22;8858;52.308;20.994;2024-02-21T12:07:59;9.20;99.90
17483;DHT22;8858;52.308;20.994;2024-02-21T12:10:28;9.20;99.90
17483;DHT22;8858;52.308;20.994;2024-02-21T12:13:05;9.20;99.90
17483;DHT22;8858;52.308;20.994;2024-02-21T12:15:34;9.20;99.90
17483;DHT22;8858;52.308;20.994;2024-02-21T12:18:05;9.10;99.90
17483;DHT22;8858;52.308;20.994;2024-02-21T12:20:36;9.10;99.90
17483;DHT22;8858;52.308;20.994;2024-02-21T12:23:09;9.10;99.90
17483;DHT22;8858;52.308;20.994;2024-02-21T12:25:39;9.00;99.90
17483;DHT22;8858;52.308;20.994;2024-02-21T12:28:08;9.00;99.90
17483;DHT22;8858;52.308;20.994;2024-02-21T12:30:37;9.00;99.90
17483;DHT22;8858;52.308;20.994;2024-02-21T12:33:08;9.00;99.90
17483;DHT22;8858;52.308;20.994;2024-02-21T12:35:37;9.00;99.90
17483;DHT22;8858;52.308;20.994;2024-02-21T12:38:05;9.10;99.90
17483;DHT22;8858;52.308;20.994;2024-02-21T12:40:34;9.10;99.90
17483;DHT22;8858;52.308;20.994;2024-02-21T12:43:02;9.10;99.90
17483;DHT22;8858;52.308;20.994;2024-02-21T12:45:32;9.10;99.90
17483;DHT22;8858;52.308;20.994;2024-02-21T12:48:02;9.10;99.90
17483;DHT22;8858;52.308;20.994;2024-02-21T12:50:33;9.00;99.90
17483;DHT22;8858;52.308;20.994;2024-02-21T12:53:02;9.00;99.90
17483;DHT22;8858;52.308;20.994;2024-02-21T12:55:43;8.90;99.90
17483;DHT22;8858;52.308;20.994;2024-02-21T12:58:11;8.90;99.90
17483;DHT22;8858;52.308;20.994;2024-02-21T13:00:40;8.80;99.90
17483;DHT22;8858;52.308;20.994;2024-02-21T13:03:11;8.90;99.90
17483;DHT22;8858;52.308;20.994;2024-02-21T13:05:42;8.90;99.90
17483;DHT22;8858;52.308;20.994;2024-02-21T13:08:10;8.80;99.90
17483;DHT22;8858;52.308;20.994;2024-02-21T13:10:39;8.80;99.90
17483;DHT22;8858;52.308;20.994;2024-02-21T13:13:08;8.90;99.90
17483;DHT22;8858;52.308;20.994;2024-02-21T13:15:37;8.90;99.90
17483;DHT22;8858;52.308;20.994;2024-02-21T13:18:10;8.90;99.90
17483;DHT22;8858;52.308;20.994;2024-02-21T13:20:39;8.90;99.90
17483;DHT22;8858;52.308;20.994;2024-02-21T13:23:10;8.90;99.90
17483;DHT22;8858;52.308;20.994;2024-02-21T13:25:38;8.90;99.90
17483;DHT22;8858;52.308;20.994;2024-02-21T13:28:07;8.90;99.90
17483;DHT22;8858;52.308;20.994;2024-02-21T13:30:36;9.00;99.90
17483;DHT22;8858;52.308;20.994;2024-02-21T13:33:06;9.00;99.90
17483;DHT22;8858;52.308;20.994;2024-02-21T13:35:35;9.00;99.90
17483;DHT22;8858;52.308;20.994;2024-02-21T13:38:07;9.00;99.90
17483;DHT22;8858;52.308;20.994;2024-02-21T13:40:38;9.00;99.90
17483;DHT22;8858;52.308;20.994;2024-02-21T13:43:07;9.00;99.90
17483;DHT22;8858;52.308;20.994;2024-02-21T13:45:40;9.00;99.90
17483;DHT22;8858;52.308;20.994;2024-02-21T13:48:12;9.00;99.90
17483;DHT22;8858;52.308;20.994;2024-02-21T13:50:42;9.00;99.90
17483;DHT22;8858;52.308;20.994;2024-02-21T13:53:11;9.00;99.90
17483;DHT22;8858;52.308;20.994;2024-02-21T13:55:40;8.90;99.90
17483;DHT22;8858;52.308;20.994;2024-02-21T13:58:11;8.90;99.90
17483;DHT22;8858;52.308;20.994;2024-02-21T14:00:39;9.00;99.90
17483;DHT22;8858;52.308;20.994;2024-02-21T14:03:08;9.00;99.90
17483;DHT22;8858;52.308;20.994;2024-02-21T14:05:38;9.00;99.90
17483;DHT22;8858;52.308;20.994;2024-02-21T14:08:09;9.10;99.90
17483;DHT22;8858;52.308;20.994;2024-02-21T14:10:38;9.00;99.90
17483;DHT22;8858;52.308;20.994;2024-02-21T14:13:08;9.00;99.90
17483;DHT22;8858;52.308;20.994;2024-02-21T14:15:36;9.10;99.90
17483;DHT22;8858;52.308;20.994;2024-02-21T14:18:08;9.10;99.90
17483;DHT22;8858;52.308;20.994;2024-02-21T14:20:37;9.10;99.90
17483;DHT22;8858;52.308;20.994;2024-02-21T14:23:05;9.00;99.90
17483;DHT22;8858;52.308;20.994;2024-02-21T14:25:34;9.10;99.90
17483;DHT22;8858;52.308;20.994;2024-02-21T14:28:03;9.00;99.90
17483;DHT22;8858;52.308;20.994;2024-02-21T14:30:32;9.10;99.90
17483;DHT22;8858;52.308;20.994;2024-02-21T14:33:01;9.10;99.90
17483;DHT22;8858;52.308;20.994;2024-02-21T14:35:30;9.00;99.90
17483;DHT22;8858;52.308;20.994;2024-02-21T14:38:02;9.00;99.90
17483;DHT22;8858;52.308;20.994;2024-02-21T14:40:31;9.00;99.90
17483;DHT22;8858;52.308;20.994;2024-02-21T14:43:01;9.00;99.90
17483;DHT22;8858;52.308;20.994;2024-02-21T14:45:29;9.00;99.90
17483;DHT22;8858;52.308;20.994;2024-02-21T14:47:59;9.00;99.90
17483;DHT22;8858;52.308;20.994;2024-02-21T14:50:30;9.00;99.90
17483;DHT22;8858;52.308;20.994;2024-02-21T14:52:59;9.00;99.90
17483;DHT22;8858;52.308;20.994;2024-02-21T14:55:27;9.00;99.90
17483;DHT22;8858;52.308;20.994;2024-02-21T14:57:57;9.00;99.90
17483;DHT22;8858;52.308;20.994;2024-02-21T15:00:28;9.00;99.90
17483;DHT22;8858;52.308;20.994;2024-02-21T15:02:59;8.90;99.90
17483;DHT22;8858;52.308;20.994;2024-02-21T15:05:28;8.90;99.90
17483;DHT22;8858;52.308;20.994;2024-02-21T15:07:58;8.90;99.90
17483;DHT22;8858;52.308;20.994;2024-02-21T15:10:26;8.90;99.90
17483;DHT22;8858;52.308;20.994;2024-02-21T15:12:56;8.90;99.90
17483;DHT22;8858;52.308;20.994;2024-02-21T15:15:24;8.80;99.90
17483;DHT22;8858;52.308;20.994;2024-02-21T15:17:53;8.80;99.90
17483;DHT22;8858;52.308;20.994;2024-02-21T15:20:23;8.90;99.90
17483;DHT22;8858;52.308;20.994;2024-02-21T15:22:52;8.90;99.90
17483;DHT22;8858;52.308;20.994;2024-02-21T15:25:20;8.80;99.90
17483;DHT22;8858;52.308;20.994;2024-02-21T15:27:52;8.80;99.90
17483;DHT22;8858;52.308;20.994;2024-02-21T15:30:21;8.80;99.90
17483;DHT22;8858;52.308;20.994;2024-02-21T15:32:50;8.80;99.90
17483;DHT22;8858;52.308;20.994;2024-02-21T15:35:20;8.80;99.90
17483;DHT22;8858;52.308;20.994;2024-02-21T15:37:54;8.80;99.90
17483;DHT22;8858;52.308;20.994;2024-02-21T15:40:22;8.70;99.90
17483;DHT22;8858;52.308;20.994;2024-02-21T15:42:51;8.70;99.90
17483;DHT22;8858;52.308;20.994;2024-02-21T15:45:20;8.70;99.90
17483;DHT22;8858;52.308;20.994;2024-02-21T15:47:49;8.70;99.90
17483;DHT22;8858;52.308;20.994;2024-02-21T15:50:20;8.70;99.90
17483;DHT22;8858;52.308;20.994;2024-02-21T15:52:50;8.70;99.90
17483;DHT22;8858;52.308;20.994;2024-02-21T15:55:21;8.70;99.90
17483;DHT22;8858;52.308;20.994;2024-02-21T15:57:49;8.70;99.90
17483;DHT22;8858;52.308;20.994;2024-02-21T16:00:18;8.70;99.90
17483;DHT22;8858;52.308;20.994;2024-02-21T16:02:50;8.70;99.90
17483;DHT22;8858;52.308;20.994;2024-02-21T16:05:20;8.70;99.90
17483;DHT22;8858;52.308;20.994;2024-02-21T16:07:49;8.70;99.90
17483;DHT22;8858;52.308;20.994;2024-02-21T16:10:17;8.70;99.90